Syracuse, New York
Current Conditions -  °F | °C
As of 7:54 AM on Friday 19 Dec 2014 (Local Time) from KSYR Reporting Station
Light Snow Light Snow  
Wind Chill: 16°   Ceiling: 2700
Heat Index: 25°   Visibility: 2.5mi
Dew Point: 21°   Wind: 9mph
Humidity: 85%   Direction: 290°WNW
Pressure: 30.11"   Gusts: NA
Location:  43.05°N, 76.15°W
Report Text: KSYR 191254Z 29008KT 2 1/2SM -SN BR FEW016 BKN027 OVC032 M04/M06 A3011 RMK AO2 FZDZE1156 SLP198 P0000 T10391061
Loading
Personal Weather Stations






























Interactive Weather Map New forecast layout! Learn more

10-Day Weather Forecast

Advertisements
Track Severe Weather on mobile